Latest Weather Observations for Camooweal

IDD60801

Issued at 4:31 pm CST Tuesday 3 May 2016 (issued every 30 minutes, with the page automatically refreshed every 10 minutes)

About weather observations | Map of weather stations | Latest weather observations for NT | Other Formats
Station Details ID: 037010 Name: CAMOOWEAL TOWNSHIP Lat: -19.92 Lon: 138.12 Height: 231.2 m
Data from the previous 72 hours. | See also: Recent months at Camooweal
Date/Time
CST
Temp
°C
App
Temp
°C
Dew
Point
Rel
Hum
%
Delta-T
°C
Wind Press
QNH
hPa
Press
MSL
hPa
Rain
since 9 am
mm
Dir
 
Spd
km/h
Gust
km/h
Spd
kts
Gust
kts
03/04:30pm 27.2 26.0 17.1 54 6.4 SSE 19 26 10 14 1014.5 1013.7 0.4
03/04:00pm 27.5 26.2 16.8 52 6.7 S 19 24 10 13 1014.4 1013.6 0.4
03/03:30pm 28.2 27.7 17.7 53 6.7 SSE 17 24 9 13 1014.3 1013.5 0.4
03/03:00pm 27.6 26.5 17.7 54 6.3 S 20 26 11 14 1014.4 1013.6 0.4
03/02:30pm 27.8 27.0 17.0 51 6.8 S 17 24 9 13 1014.4 1013.6 0.4
03/02:00pm 27.5 27.0 17.9 55 6.1 SSW 17 24 9 13 1014.6 1013.8 0.4
03/01:30pm 27.0 25.8 17.5 56 6.0 SSW 20 28 11 15 1015.3 1014.4 0.4
03/01:00pm 26.9 26.3 18.5 60 5.4 SSW 19 24 10 13 1015.6 1014.7 0.0
03/12:30pm 26.1 25.9 17.7 60 5.3 SSW 15 20 8 11 1016.2 1015.3 0.0
03/12:00pm 25.9 26.4 17.5 59 5.3 SW 11 15 6 8 1016.7 1015.8 0.0
03/11:30am 25.1 27.1 17.8 64 4.6 SW 4 9 2 5 1016.9 1016.1 0.0
03/11:00am 24.5 26.4 17.7 66 4.3 SW 4 9 2 5 1017.3 1016.5 0.0
03/10:30am 24.1 25.4 17.6 67 4.1 S 7 11 4 6 1017.5 1016.7 0.0
03/10:00am 23.5 24.9 17.7 70 3.6 SSE 7 13 4 7 1017.5 1016.7 0.0
03/09:30am 22.7 23.4 18.0 75 3.0 S 11 17 6 9 1017.7 1016.9 0.0
03/09:00am 21.9 21.7 17.7 77 2.6 S 15 22 8 12 1017.5 1016.7 0.0
03/08:30am 21.9 20.9 17.5 76 2.7 SSW 19 24 10 13 1017.5 1016.7 2.2
03/08:00am 21.7 20.8 17.7 78 2.5 SSW 19 26 10 14 1017.4 1016.6 2.2
03/07:30am 21.2 20.0 17.6 80 2.2 SSW 20 28 11 15 1017.2 1016.4 2.2
03/07:00am 21.6 19.5 16.3 72 3.2 SW 22 30 12 16 1016.9 1016.1 2.2
03/06:30am 21.6 19.4 15.9 70 3.5 SW 22 33 12 18 1016.4 1015.5 2.2
03/06:00am 21.6 20.1 15.2 67 3.8 SW 17 22 9 12 1015.8 1014.9 2.2
03/05:30am 21.5 21.3 15.8 70 3.4 W 11 17 6 9 1015.6 1014.7 2.2
03/05:00am 20.6 23.2 17.6 83 1.9 CALM 0 6 0 3 1014.9 1014.1 2.2
03/04:30am 23.4 24.5 13.6 54 5.8 CALM 0 7 0 4 1014.3 1013.5 0.0
03/04:00am 23.3 24.5 13.8 55 5.6 CALM 0 0 0 0 1014.0 1013.2 0.0
03/03:30am 23.4 24.2 13.6 54 5.8 WSW 2 7 1 4 1013.9 1013.1 0.0
03/03:00am 24.1 23.8 13.3 51 6.3 S 7 9 4 5 1013.7 1012.9 0.0
03/02:30am 25.0 24.4 13.5 48 6.8 ESE 9 13 5 7 1013.7 1012.9 0.0
03/02:00am 25.0 24.8 13.5 48 6.8 SE 7 13 4 7 1013.9 1013.1 0.0
03/01:30am 24.9 23.9 13.5 49 6.7 SE 11 17 6 9 1014.1 1013.3 0.0
03/01:00am 25.3 23.8 13.2 47 7.1 SSE 13 20 7 11 1014.4 1013.6 0.0
03/12:30am 25.6 24.1 13.1 46 7.4 SSE 13 17 7 9 1014.6 1013.8 0.0
03/12:00am 25.9 24.0 13.1 45 7.5 SSE 15 20 8 11 1014.8 1014.0 0.0
 
Date/Time
CST
Temp
°C
App
Temp
°C
Dew
Point
Rel
Hum
%
Delta-T
°C
Wind Press
QNH
hPa
Press
MSL
hPa
Rain
since 9 am
mm
Dir
 
Spd
km/h
Gust
km/h
Spd
kts
Gust
kts
02/11:30pm 25.7 23.4 12.9 45 7.5 S 17 24 9 13 1014.9 1014.1 0.0
02/11:00pm 25.9 23.9 12.7 44 7.7 S 15 22 8 12 1015.3 1014.4 0.0
02/10:30pm 26.4 24.0 12.5 42 8.1 S 17 24 9 13 1015.5 1014.6 0.0
02/10:00pm 26.8 24.2 12.1 40 8.6 S 17 20 9 11 1015.5 1014.6 0.0
02/09:30pm 27.0 25.0 11.5 38 8.9 S 13 19 7 10 1015.3 1014.4 0.0
02/09:00pm 27.5 24.6 11.1 36 9.4 S 17 22 9 12 1015.4 1014.5 0.0
02/08:30pm 28.0 24.2 11.1 35 9.7 SSE 22 28 12 15 1015.0 1014.2 0.0
02/08:00pm 28.5 24.6 10.7 33 10.2 SSE 22 30 12 16 1014.7 1013.9 0.0
02/07:30pm 28.9 24.6 10.6 32 10.5 SSE 24 32 13 17 1014.2 1013.4 0.0
02/07:00pm 29.7 25.3 10.3 30 11.1 SSE 24 33 13 18 1013.9 1013.1 0.0
02/06:30pm 30.6 26.1 10.0 28 11.8 S 24 39 13 21 1013.5 1012.7 0.0
02/06:00pm 31.9 28.0 12.2 30 11.7 S 24 32 13 17 1012.9 1012.0 0.0
02/05:30pm 32.8 29.2 12.9 29 12.0 S 24 33 13 18 1012.5 1011.6 0.0
02/05:00pm 33.5 29.1 13.0 29 12.4 SSW 28 37 15 20 1012.3 1011.4 0.0
02/04:30pm 34.5 31.0 13.3 27 13.0 SSW 24 35 13 19 1012.0 1011.1 0.0
02/04:00pm 35.1 32.7 13.9 28 13.1 SW 19 32 10 17 1012.0 1011.1 0.0
02/03:30pm 35.4 32.9 14.1 28 13.2 SSW 20 28 11 15 1011.9 1011.0 0.0
02/03:00pm 36.2 35.5 14.2 26 13.7 SSW 11 20 6 11 1012.0 1011.1 0.0
02/02:30pm 36.0 36.7 14.6 27 13.4 NW 4 19 2 10 1012.2 1011.3 0.0
02/02:00pm 35.8 36.5 14.4 27 13.4 SSE 4 11 2 6 1012.3 1011.4 0.0
02/01:30pm 35.3 34.7 14.6 29 12.9 SW 11 20 6 11 1012.7 1011.8 0.0
02/01:00pm 35.3 35.1 15.6 31 12.5 WSW 11 20 6 11 1013.1 1012.3 0.0
02/12:30pm 34.5 33.2 14.9 31 12.3 SSW 15 22 8 12 1013.5 1012.7 0.0
02/12:00pm 33.9 32.1 15.4 33 11.6 SW 19 28 10 15 1013.9 1013.1 0.0
02/11:30am 33.7 32.4 15.7 34 11.4 SW 17 24 9 13 1014.4 1013.6 0.0
02/11:00am 33.0 31.8 15.0 33 11.2 SW 15 20 8 11 1014.7 1013.9 0.0
02/10:30am 31.7 31.0 14.4 35 10.6 SW 11 17 6 9 1015.0 1014.2 0.0
02/10:00am 31.0 30.1 13.7 34 10.5 SSW 11 17 6 9 1015.4 1014.5 0.0
02/09:30am 29.2 27.5 12.6 36 9.8 SSW 13 20 7 11 1015.2 1014.3 0.0
02/09:00am 28.3 26.4 13.0 39 9.1 S 15 20 8 11 1015.2 1014.3 0.0
02/08:30am 27.1 25.5 12.7 41 8.5 S 13 19 7 10 1015.3 1014.4 0.0
02/08:00am 26.3 24.8 13.1 44 7.8 S 13 17 7 9 1014.9 1014.1 0.0
02/07:30am 24.9 24.3 13.5 49 6.7 SSW 9 13 5 7 1014.7 1013.9 0.0
02/07:00am 23.9 24.1 14.6 56 5.6 SSW 7 13 4 7 1014.4 1013.6 0.0
02/06:30am 23.9 23.7 14.6 56 5.6 SSW 9 11 5 6 1014.1 1013.3 0.0
02/06:00am 25.2 27.0 16.4 58 5.5 W 2 7 1 4 1013.9 1013.1 0.0
02/05:30am 26.1 28.3 16.6 55 5.9 CALM 0 7 0 4 1013.5 1012.7 0.0
02/05:00am 26.3 28.4 16.3 54 6.2 CALM 0 0 0 0 1013.3 1012.5 0.0
02/04:30am 26.0 28.0 16.0 54 6.2 CALM 0 0 0 0 1013.1 1012.3 0.0
02/04:00am 25.1 26.8 15.1 53 6.1 CALM 0 0 0 0 1013.0 1012.1 0.0
02/03:30am 25.8 27.2 15.5 53 6.3 WSW 2 7 1 4 1012.9 1012.0 0.0
02/03:00am 26.4 28.1 15.1 49 6.9 CALM 0 0 0 0 1013.0 1012.1 0.0
02/02:30am 26.7 28.5 15.4 50 6.9 CALM 0 0 0 0 1013.0 1012.1 0.0
02/02:00am 27.1 28.5 14.5 46 7.6 CALM 0 0 0 0 1013.0 1012.1 0.0
02/01:30am 28.2 28.6 14.8 44 8.2 NNE 6 9 3 5 1013.0 1012.1 0.0
02/01:00am 28.2 28.5 14.4 42 8.4 NNE 6 11 3 6 1013.1 1012.3 0.0
02/12:30am 28.7 28.6 14.9 43 8.5 NE 9 13 5 7 1013.2 1012.4 0.0
02/12:00am 27.8 29.0 14.8 45 7.9 ENE 2 9 1 5 1013.4 1012.6 0.0
 
Date/Time
CST
Temp
°C
App
Temp
°C
Dew
Point
Rel
Hum
%
Delta-T
°C
Wind Press
QNH
hPa
Press
MSL
hPa
Rain
since 9 am
mm
Dir
 
Spd
km/h
Gust
km/h
Spd
kts
Gust
kts
01/11:30pm 28.8 28.6 14.6 42 8.7 NE 9 13 5 7 1013.5 1012.7 0.0
01/11:00pm 29.1 29.5 15.2 42 8.6 NE 7 9 4 5 1013.6 1012.8 0.0
01/10:30pm 29.2 29.5 15.0 42 8.7 NE 7 9 4 5 1013.7 1012.9 0.0
01/10:00pm 29.7 29.6 15.0 40 9.1 NNE 9 13 5 7 1013.7 1012.9 0.0
01/09:30pm 30.1 30.4 15.0 40 9.3 NE 7 9 4 5 1013.7 1012.9 0.0
01/09:00pm 30.1 30.0 15.0 40 9.3 ENE 9 11 5 6 1013.8 1013.0 0.0
01/08:30pm 30.6 30.9 15.1 39 9.6 E 7 9 4 5 1013.7 1012.9 0.0
01/08:00pm 30.9 31.4 14.9 37 9.9 E 6 7 3 4 1013.6 1012.8 0.0
01/07:30pm 30.6 31.7 13.4 35 10.4 CALM 0 0 0 0 1013.4 1012.6 0.0
01/07:00pm 32.6 33.9 14.2 32 11.3 CALM 0 0 0 0 1013.1 1012.3 0.0
01/06:30pm 33.5 34.9 14.5 31 11.8 CALM 0 0 0 0 1012.8 1011.9 0.0
01/06:00pm 34.3 35.5 13.7 29 12.7 CALM 0 7 0 4 1012.4 1011.5 0.0
01/05:30pm 35.3 36.4 13.5 27 13.4 CALM 0 6 0 3 1012.0 1011.1 0.0
01/05:00pm 36.5 36.0 13.9 26 14.0 NE 9 15 5 8 1011.7 1010.8 0.0
01/04:30pm 36.8 36.2 13.5 24 14.4 E 9 15 5 8 1011.6 1010.7 0.0
01/04:00pm 37.3 37.8 14.0 25 14.5 NE 4 13 2 7 1011.6 1010.7 0.0
01/03:30pm 36.9 36.0 13.6 24 14.4 E 11 19 6 10 1011.7 1010.8 0.0
01/03:00pm 37.5 36.9 13.5 24 14.9 NE 9 19 5 10 1011.8 1010.9 0.0
01/02:30pm 37.2 37.7 13.9 25 14.5 NNW 4 11 2 6 1012.0 1011.1 0.0
01/02:00pm 37.2 37.1 13.9 25 14.5 S 7 13 4 7 1012.3 1011.4 0.0
01/01:30pm 37.0 37.4 13.7 25 14.5 WNW 4 9 2 5 1012.6 1011.7 0.0
01/01:00pm 36.6 35.8 14.0 26 14.1 E 11 20 6 11 1012.9 1012.0 0.0
01/12:30pm 36.3 36.8 14.9 28 13.5 ESE 6 17 3 9 1013.2 1012.4 0.0
01/12:00pm 35.8 36.5 14.4 27 13.4 NNE 4 13 2 7 1013.6 1012.8 0.0
01/11:30am 36.0 36.0 15.2 29 13.1 NE 9 17 5 9 1014.2 1013.4 0.0
01/11:00am 35.4 35.8 16.2 32 12.3 NNW 9 17 5 9 1014.8 1014.0 0.0
01/10:30am 34.8 35.7 17.5 35 11.2 NE 9 15 5 8 1015.0 1014.2 0.0
01/10:00am 33.0 35.1 18.0 41 9.8 NNE 4 15 2 8 1015.4 1014.5 0.0
01/09:30am 32.3 34.7 18.8 44 8.9 NNW 4 9 2 5 1015.5 1014.6 0.0
01/09:00am 31.0 33.9 19.0 48 7.9 NW 2 7 1 4 1015.4 1014.1 0.0
01/08:30am 29.3 31.5 19.3 55 6.6 NW 6 9 3 5 1015.2 1013.9 0.0
01/08:00am 27.5 30.3 18.8 59 5.6 N 2 9 1 5 1015.0 1013.8 0.0
01/07:30am 25.5 27.3 18.4 65 4.5 NNE 6 9 3 5 1014.8 1013.6 0.0
01/07:00am 23.8 25.6 17.3 67 4.1 NNE 4 9 2 5 1014.7 1013.5 0.0
01/06:30am 23.1 25.3 16.6 67 4.0 CALM 0 9 0 5 1014.5 1013.3 0.0
01/06:00am 23.5 24.9 16.5 65 4.3 NE 4 7 2 4 1014.2 1013.0 0.0
01/05:30am 23.1 25.0 15.7 63 4.5 CALM 0 0 0 0 1014.0 1012.8 0.0
01/05:00am 22.4 24.3 15.7 66 4.1 CALM 0 0 0 0 1013.6 1012.4 0.0
01/04:30am 23.8 25.6 15.6 60 5.0 CALM 0 0 0 0 1013.3 1012.0 0.0
01/04:00am 24.0 25.8 15.5 59 5.2 CALM 0 0 0 0 1013.2 1011.9 0.0
01/03:30am 23.6 25.2 14.9 58 5.2 CALM 0 0 0 0 1013.1 1011.8 0.0
01/03:00am 24.0 25.5 14.7 56 5.6 CALM 0 0 0 0 1013.1 1011.8 0.0
01/02:30am 24.9 26.5 15.0 54 6.0 CALM 0 0 0 0 1013.2 1011.9 0.0
01/02:00am 24.5 25.9 14.3 53 6.1 CALM 0 0 0 0 1013.4 1012.1 0.0
01/01:30am 24.6 25.9 14.1 52 6.3 CALM 0 0 0 0 1013.5 1012.3 0.0
01/01:00am 24.7 26.0 14.2 52 6.3 CALM 0 0 0 0 1013.7 1012.5 0.0
01/12:30am 24.9 25.7 12.5 46 7.2 CALM 0 0 0 0 1013.9 1012.7 0.0
01/12:00am 26.6 27.3 13.3 43 7.9 N 2 7 1 4 1014.1 1012.9 0.0
 
Date/Time
CST
Temp
°C
App
Temp
°C
Dew
Point
Rel
Hum
%
Delta-T
°C
Wind Press
QNH
hPa
Press
MSL
hPa
Rain
since 9 am
mm
Dir
 
Spd
km/h
Gust
km/h
Spd
kts
Gust
kts
30/11:30pm 28.2 28.0 13.7 41 8.7 NE 7 9 4 5 1014.1 1012.9 0.0
30/11:00pm 28.0 28.0 13.5 41 8.7 ENE 6 9 3 5 1014.2 1013.0 0.0
30/10:30pm 27.9 28.5 13.1 40 8.8 NE 2 6 1 3 1014.2 1013.0 0.0
30/10:00pm 29.6 29.2 12.9 35 10.0 NE 7 11 4 6 1014.3 1013.1 0.0
30/09:30pm 29.1 29.4 13.3 37 9.5 NNE 4 11 2 6 1014.4 1013.2 0.0
30/09:00pm 30.2 29.9 12.6 34 10.5 NE 6 9 3 5 1014.3 1013.1 0.0
30/08:30pm 31.3 31.0 12.6 31 11.2 ENE 6 9 3 5 1014.1 1012.9 0.0
30/08:00pm 30.6 31.2 12.0 32 11.0 CALM 0 0 0 0 1013.8 1012.6 0.0
30/07:30pm 31.3 32.0 12.2 31 11.4 CALM 0 0 0 0 1013.4 1012.1 0.0
30/07:00pm 31.3 32.0 12.2 31 11.4 CALM 0 4 0 2 1013.1 1011.8 0.0
30/06:30pm 32.3 32.8 11.5 28 12.3 CALM 0 0 0 0 1012.6 1011.3 0.0
30/06:00pm 33.1 33.6 11.6 27 12.8 CALM 0 0 0 0 1012.3 1011.0 0.0
30/05:30pm 34.4 34.9 11.5 25 13.6 CALM 0 0 0 0 1012.1 1010.8 0.0
30/05:00pm 35.4 35.6 10.4 22 14.7 CALM 0 7 0 4 1011.8 1010.5 0.0
30/04:30pm 35.6 35.8 10.6 22 14.8 CALM 0 0 0 0 1011.6 1010.3 0.0

Other Formats:

Comma delimited format used in spreadsheet applications
http://www.bom.gov.au/fwo/IDD60801/IDD60801.94255.axf

JavaScript Object Notation format (JSON) in row-major order
http://www.bom.gov.au/fwo/IDD60801/IDD60801.94255.json